createdAt,value
2024-02-10T00:00:22.169Z,366.83
2024-02-10T00:01:48.024Z,338.67
2024-02-10T00:03:09.013Z,346.00
2024-02-10T00:04:29.668Z,340.67
2024-02-10T00:05:50.487Z,364.67
2024-02-10T00:07:13.814Z,391.33
2024-02-10T00:08:34.674Z,385.33
2024-02-10T00:09:56.810Z,400.17
2024-02-10T00:11:18.094Z,430.83
2024-02-10T00:12:41.277Z,409.83
2024-02-10T00:14:02.278Z,356.50
2024-02-10T00:15:24.736Z,315.83
2024-02-10T00:16:46.166Z,395.67
2024-02-10T00:18:06.969Z,349.00
2024-02-10T00:19:28.333Z,358.00
2024-02-10T00:20:53.981Z,338.67
2024-02-10T00:22:14.964Z,344.00
2024-02-10T00:23:36.254Z,361.17
2024-02-10T00:25:33.136Z,383.67
2024-02-10T00:27:06.029Z,352.50
2024-02-10T00:28:37.466Z,338.67
2024-02-10T00:29:59.645Z,341.00
2024-02-10T00:31:26.184Z,379.83
2024-02-10T00:33:27.978Z,397.33
2024-02-10T00:34:50.470Z,339.33
2024-02-10T00:36:19.284Z,310.83
2024-02-10T00:37:43.026Z,271.17
2024-02-10T00:39:58.296Z,251.00
2024-02-10T00:41:20.728Z,331.50
2024-02-10T00:42:56.531Z,370.50
2024-02-10T00:44:18.421Z,346.33
2024-02-10T00:49:25.303Z,346.83
2024-02-10T00:51:08.285Z,410.17
2024-02-10T00:52:29.276Z,318.83
2024-02-10T00:54:34.407Z,248.67
2024-02-10T00:55:58.765Z,319.33
2024-02-10T00:57:45.604Z,296.17
2024-02-10T00:59:28.086Z,268.83
2024-02-10T01:00:50.237Z,282.17
2024-02-10T01:04:17.768Z,256.50
2024-02-10T01:06:25.039Z,306.00
2024-02-10T01:08:01.319Z,285.33
2024-02-10T01:11:19.566Z,208.00
2024-02-10T01:12:43.622Z,352.33
2024-02-10T01:14:43.585Z,356.50
2024-02-10T01:16:10.186Z,300.17
2024-02-10T01:17:37.243Z,277.50
2024-02-10T01:19:03.070Z,266.83
2024-02-10T01:23:18.064Z,261.00
2024-02-10T01:25:32.353Z,232.50
2024-02-10T01:27:13.991Z,292.67
2024-02-10T01:28:35.829Z,183.00
2024-02-10T01:30:56.406Z,139.67
2024-02-10T01:32:36.848Z,148.83
2024-02-10T01:33:57.602Z,166.67
2024-02-10T01:35:19.481Z,181.17
2024-02-10T01:36:39.855Z,234.50
2024-02-10T01:38:00.929Z,232.50
2024-02-10T01:39:22.126Z,305.00
2024-02-10T01:40:44.004Z,272.50
2024-02-10T01:42:05.111Z,175.67
2024-02-10T01:43:26.223Z,189.17
2024-02-10T01:44:47.071Z,194.00
2024-02-10T01:46:08.937Z,168.00
2024-02-10T01:47:31.136Z,217.00
2024-02-10T01:48:52.257Z,229.83
2024-02-10T01:50:14.655Z,193.83
2024-02-10T01:51:35.931Z,225.00
2024-02-10T01:52:56.642Z,163.50
2024-02-10T01:54:17.725Z,116.83
2024-02-10T01:55:38.196Z,178.00
2024-02-10T01:56:58.808Z,276.83
2024-02-10T01:58:23.411Z,262.17
2024-02-10T01:59:45.681Z,168.83
2024-02-10T02:01:06.496Z,153.17
2024-02-10T02:02:32.443Z,164.00
2024-02-10T02:03:54.733Z,128.17
2024-02-10T02:05:15.437Z,184.33
2024-02-10T02:06:36.111Z,155.17
2024-02-10T02:07:57.841Z,154.67
2024-02-10T02:09:18.863Z,115.83
2024-02-10T02:10:39.443Z,117.33
2024-02-10T02:12:00.127Z,108.67
2024-02-10T02:13:24.460Z,131.00
2024-02-10T02:14:48.486Z,133.00
2024-02-10T02:16:13.548Z,119.00
2024-02-10T02:17:38.931Z,115.00
2024-02-10T02:18:59.955Z,88.17
2024-02-10T02:20:22.168Z,79.33
2024-02-10T02:21:44.091Z,79.33
2024-02-10T02:23:05.228Z,95.33
2024-02-10T02:24:27.343Z,76.83
2024-02-10T02:25:51.650Z,90.67
2024-02-10T02:27:12.517Z,103.50
2024-02-10T02:28:33.006Z,68.17
2024-02-10T02:29:53.388Z,67.50
2024-02-10T02:31:15.031Z,70.17
2024-02-10T02:32:36.028Z,76.17
2024-02-10T02:33:58.126Z,63.17
2024-02-10T02:35:18.963Z,58.00
2024-02-10T02:36:40.940Z,53.00
2024-02-10T02:38:04.500Z,54.67
2024-02-10T02:39:25.084Z,58.17
2024-02-10T02:40:45.799Z,64.67
2024-02-10T02:42:07.310Z,67.33
2024-02-10T02:43:28.069Z,56.17
2024-02-10T02:44:48.618Z,49.00
2024-02-10T02:46:11.519Z,49.83
2024-02-10T02:47:34.128Z,49.00
2024-02-10T02:48:54.791Z,51.50
2024-02-10T02:50:16.163Z,54.83
2024-02-10T02:51:37.036Z,67.67
2024-02-10T02:53:02.090Z,61.33
2024-02-10T02:54:36.997Z,62.00
2024-02-10T02:56:20.395Z,58.67
2024-02-10T02:57:41.244Z,54.50
2024-02-10T03:00:00.010Z,52.00
2024-02-10T03:03:42.298Z,47.50
2024-02-10T03:05:51.048Z,47.00
2024-02-10T03:07:45.223Z,50.67
2024-02-10T03:09:17.867Z,63.50
2024-02-10T03:13:59.618Z,58.67
2024-02-10T03:15:39.964Z,69.33
2024-02-10T03:17:25.364Z,67.17
2024-02-10T03:19:13.061Z,69.67
2024-02-10T03:21:42.843Z,69.17
2024-02-10T03:23:04.534Z,69.33
2024-02-10T03:24:35.914Z,69.17
2024-02-10T03:26:18.774Z,67.67
2024-02-10T03:27:49.372Z,74.67
2024-02-10T03:33:03.326Z,89.17
2024-02-10T03:37:32.026Z,90.33
2024-02-10T03:39:27.643Z,88.17
2024-02-10T03:41:32.053Z,82.67
2024-02-10T03:43:08.112Z,78.50
2024-02-10T03:44:29.580Z,75.17
2024-02-10T03:46:04.603Z,71.50
2024-02-10T03:47:41.192Z,67.67
2024-02-10T03:49:02.206Z,65.83
2024-02-10T03:50:27.353Z,71.83
2024-02-10T03:52:16.164Z,111.17
2024-02-10T03:53:37.244Z,91.50
2024-02-10T03:57:21.031Z,85.67
2024-02-10T03:58:53.186Z,86.83
2024-02-10T04:00:25.741Z,85.00
2024-02-10T04:01:57.221Z,103.17
2024-02-10T04:03:18.762Z,90.67
2024-02-10T04:04:39.436Z,79.50
2024-02-10T04:06:00.416Z,78.83
2024-02-10T04:07:22.063Z,74.67
2024-02-10T04:08:46.875Z,80.33
2024-02-10T04:10:10.548Z,70.83
2024-02-10T04:11:31.325Z,70.00
2024-02-10T04:12:52.011Z,70.33
2024-02-10T04:14:17.477Z,72.00
2024-02-10T04:15:38.050Z,76.83
2024-02-10T04:16:58.641Z,74.50
2024-02-10T04:18:20.154Z,71.67
2024-02-10T04:19:41.074Z,71.33
2024-02-10T04:21:02.759Z,72.00
2024-02-10T04:22:24.607Z,71.33
2024-02-10T04:23:45.190Z,74.00
2024-02-10T04:25:13.531Z,73.17
2024-02-10T04:26:34.136Z,66.83
2024-02-10T04:27:54.866Z,67.83
2024-02-10T04:29:15.640Z,69.00
2024-02-10T04:30:36.518Z,68.33
2024-02-10T04:32:00.375Z,65.67
2024-02-10T04:33:21.401Z,64.67
2024-02-10T04:34:44.722Z,68.17
2024-02-10T04:36:05.165Z,63.50
2024-02-10T04:37:25.767Z,63.00
2024-02-10T04:38:48.791Z,66.33
2024-02-10T04:40:10.917Z,74.00
2024-02-10T04:41:32.305Z,88.17
2024-02-10T04:42:54.320Z,85.50
2024-02-10T04:44:14.916Z,80.83
2024-02-10T04:45:36.744Z,71.50
2024-02-10T04:46:57.288Z,61.00
2024-02-10T04:48:21.665Z,59.50
2024-02-10T04:49:42.844Z,61.83
2024-02-10T04:51:03.588Z,68.33
2024-02-10T04:52:24.602Z,68.83
2024-02-10T04:53:45.999Z,67.17
2024-02-10T04:55:07.059Z,67.67
2024-02-10T04:56:50.230Z,70.00
2024-02-10T04:58:14.053Z,69.33
2024-02-10T05:01:51.003Z,60.83
2024-02-10T05:03:11.507Z,58.33
2024-02-10T05:04:32.563Z,57.00
2024-02-10T05:05:53.716Z,55.33
2024-02-10T05:07:19.264Z,53.00
2024-02-10T05:08:40.357Z,52.00
2024-02-10T05:10:03.402Z,50.50
2024-02-10T05:11:25.728Z,49.50
2024-02-10T05:12:49.327Z,49.33
2024-02-10T05:14:13.128Z,50.00
2024-02-10T05:15:33.866Z,49.33
2024-02-10T05:16:56.979Z,49.00
2024-02-10T05:18:17.818Z,49.00
2024-02-10T05:19:38.842Z,50.00
2024-02-10T05:20:59.688Z,58.17
2024-02-10T05:22:22.911Z,59.00
2024-02-10T05:23:46.681Z,58.33
2024-02-10T05:25:15.322Z,57.00
2024-02-10T05:26:37.670Z,56.17
2024-02-10T05:28:01.872Z,55.67
2024-02-10T05:29:22.628Z,55.67
2024-02-10T05:30:43.057Z,56.67
2024-02-10T05:32:07.189Z,61.00
2024-02-10T05:33:30.836Z,64.17
2024-02-10T05:34:51.953Z,63.83
2024-02-10T05:38:37.196Z,56.00
2024-02-10T05:40:37.962Z,52.67
2024-02-10T05:44:47.704Z,48.67
2024-02-10T05:46:17.768Z,48.17
2024-02-10T05:47:40.734Z,48.83
2024-02-10T05:49:09.691Z,48.00
2024-02-10T05:50:43.776Z,48.00
2024-02-10T05:52:07.393Z,48.83
2024-02-10T05:53:28.769Z,49.83
2024-02-10T05:54:56.377Z,51.00
2024-02-10T05:56:47.125Z,53.67
2024-02-10T05:58:08.427Z,62.00
2024-02-10T05:59:29.746Z,60.67
2024-02-10T06:01:00.997Z,60.00
2024-02-10T06:02:22.848Z,63.00
2024-02-10T06:03:43.851Z,63.50
2024-02-10T06:05:06.890Z,66.50
2024-02-10T06:06:27.606Z,70.00
2024-02-10T06:08:27.089Z,69.50
2024-02-10T06:10:44.971Z,66.67
2024-02-10T06:14:00.619Z,59.00
2024-02-10T06:15:25.847Z,59.00
2024-02-10T06:16:53.191Z,57.83
2024-02-10T06:18:16.856Z,56.17
2024-02-10T06:19:43.059Z,55.00
2024-02-10T06:21:18.167Z,55.00
2024-02-10T06:22:48.996Z,56.83
2024-02-10T06:24:33.476Z,58.00
2024-02-10T06:26:24.319Z,58.00
2024-02-10T06:28:11.301Z,58.00
2024-02-10T06:29:36.808Z,58.00
2024-02-10T06:31:00.179Z,58.00
2024-02-10T06:32:25.862Z,58.00
2024-02-10T06:34:44.704Z,58.00
2024-02-10T06:36:07.464Z,61.33
2024-02-10T06:38:54.002Z,62.00
2024-02-10T06:39:31.503Z,60.67
2024-02-10T06:41:32.458Z,60.00
2024-02-10T06:43:04.473Z,59.33
2024-02-10T06:44:32.187Z,62.50
2024-02-10T06:49:22.699Z,57.00
2024-02-10T06:50:46.795Z,53.00
2024-02-10T06:52:13.135Z,53.00
2024-02-10T06:53:55.273Z,52.67
2024-02-10T06:58:17.670Z,51.00
2024-02-10T06:59:50.909Z,50.00
2024-02-10T07:01:30.189Z,50.00
2024-02-10T07:03:08.075Z,49.17
2024-02-10T07:09:31.375Z,54.17
2024-02-10T07:10:59.624Z,60.17
2024-02-10T07:12:22.440Z,58.67
2024-02-10T07:16:56.469Z,54.33
2024-02-10T07:18:43.530Z,54.00
2024-02-10T07:20:07.770Z,55.00
2024-02-10T07:21:30.062Z,54.17
2024-02-10T07:25:25.304Z,50.50
2024-02-10T07:28:57.787Z,50.00
2024-02-10T07:33:08.202Z,51.00
2024-02-10T07:35:03.315Z,52.00
2024-02-10T07:36:29.675Z,52.00
2024-02-10T07:38:40.372Z,51.17
2024-02-10T07:40:25.564Z,52.00
2024-02-10T07:42:50.700Z,55.67
2024-02-10T07:49:36.922Z,56.50
2024-02-10T07:51:27.654Z,51.33
2024-02-10T07:53:32.448Z,53.00
2024-02-10T07:55:20.894Z,52.00
2024-02-10T07:57:42.627Z,53.00
2024-02-10T08:01:48.695Z,56.00
2024-02-10T08:03:11.132Z,58.67
2024-02-10T08:04:33.824Z,61.00
2024-02-10T08:07:37.787Z,60.00
2024-02-10T08:09:33.910Z,61.17
2024-02-10T08:11:01.277Z,63.00
2024-02-10T08:12:38.541Z,63.00
2024-02-10T08:14:18.444Z,64.17
2024-02-10T08:18:11.471Z,72.50
2024-02-10T08:19:38.882Z,68.67
2024-02-10T08:21:04.709Z,66.00
2024-02-10T08:22:41.440Z,66.00
2024-02-10T08:24:49.013Z,65.50
2024-02-10T08:26:15.576Z,65.00
2024-02-10T08:27:47.900Z,65.00
2024-02-10T08:29:26.336Z,66.83
2024-02-10T08:31:35.609Z,69.50
2024-02-10T08:33:20.329Z,69.50
2024-02-10T08:36:58.867Z,77.00
2024-02-10T08:38:42.579Z,75.67
2024-02-10T08:42:08.373Z,69.00
2024-02-10T08:43:47.774Z,69.17
2024-02-10T08:45:34.228Z,73.67
2024-02-10T08:47:22.076Z,74.00
2024-02-10T08:49:40.797Z,72.83
2024-02-10T08:51:08.346Z,65.17
2024-02-10T08:52:33.059Z,64.00
2024-02-10T08:53:58.886Z,64.33
2024-02-10T08:55:54.888Z,66.00
2024-02-10T08:59:28.460Z,67.83
2024-02-10T09:01:19.135Z,84.17
2024-02-10T09:02:52.433Z,85.00
2024-02-10T09:04:18.410Z,84.00
2024-02-10T09:06:23.368Z,82.17
2024-02-10T09:08:44.796Z,79.17
2024-02-10T09:10:13.891Z,67.00
2024-02-10T09:12:03.464Z,67.00
2024-02-10T09:13:28.518Z,64.17
2024-02-10T09:14:55.026Z,63.00
2024-02-10T09:16:37.030Z,63.67
2024-02-10T09:18:55.606Z,63.67
2024-02-10T09:20:39.593Z,64.00
2024-02-10T09:22:17.235Z,64.00
2024-02-10T09:24:15.588Z,64.00
2024-02-10T09:25:59.577Z,65.33
2024-02-10T09:27:31.309Z,72.83
2024-02-10T09:29:13.807Z,73.50
2024-02-10T09:32:50.324Z,76.17
2024-02-10T09:34:15.794Z,76.17
2024-02-10T09:35:58.549Z,80.00
2024-02-10T09:37:34.176Z,79.33
2024-02-10T09:39:00.226Z,78.33
2024-02-10T09:40:23.062Z,86.17
2024-02-10T09:41:45.220Z,144.67
2024-02-10T09:43:11.187Z,292.67
2024-02-10T09:44:34.272Z,420.67
2024-02-10T09:46:19.848Z,344.33
2024-02-10T09:47:53.899Z,245.67
2024-02-10T09:49:33.260Z,142.83
2024-02-10T09:53:04.383Z,105.83
2024-02-10T09:54:44.911Z,98.67
2024-02-10T09:56:46.226Z,93.67
2024-02-10T09:58:32.183Z,109.67
2024-02-10T10:00:04.483Z,117.67
2024-02-10T10:02:10.017Z,109.67
2024-02-10T10:06:11.730Z,181.50
2024-02-10T10:07:37.236Z,162.33
2024-02-10T10:11:38.612Z,136.67
2024-02-10T10:13:56.052Z,163.67
2024-02-10T10:16:26.355Z,182.50
2024-02-10T10:17:50.226Z,193.00
2024-02-10T10:19:34.812Z,172.67
2024-02-10T10:21:06.878Z,193.17
2024-02-10T10:23:11.798Z,177.00
2024-02-10T10:24:50.776Z,144.83
2024-02-10T10:26:12.952Z,188.50
2024-02-10T10:33:25.532Z,343.83
2024-02-10T10:34:58.835Z,409.17
2024-02-10T10:38:13.932Z,360.83
2024-02-10T10:39:51.694Z,362.17
2024-02-10T10:41:31.777Z,359.50
2024-02-10T10:43:10.869Z,376.33
2024-02-10T10:44:42.325Z,351.33
2024-02-10T10:46:55.647Z,332.83
2024-02-10T10:50:44.772Z,297.00
2024-02-10T10:53:45.665Z,242.50
2024-02-10T10:56:35.397Z,438.33
2024-02-10T10:58:07.247Z,469.83
2024-02-10T10:59:30.344Z,457.50
2024-02-10T11:01:33.466Z,477.17
2024-02-10T11:04:49.523Z,383.33
2024-02-10T11:06:16.510Z,359.83
2024-02-10T11:07:45.535Z,282.50
2024-02-10T11:09:38.198Z,295.17
2024-02-10T11:11:09.566Z,291.33
2024-02-10T11:12:40.338Z,292.67
2024-02-10T11:14:26.415Z,410.50
2024-02-10T11:16:16.522Z,314.67
2024-02-10T11:17:47.507Z,209.00
2024-02-10T11:20:52.210Z,184.83
2024-02-10T11:22:14.064Z,191.17
2024-02-10T11:23:51.619Z,218.50
2024-02-10T11:25:59.257Z,215.33
2024-02-10T11:28:03.111Z,176.17
2024-02-10T11:29:46.971Z,218.83
2024-02-10T11:33:51.156Z,233.33
2024-02-10T11:35:16.480Z,210.50
2024-02-10T11:36:39.668Z,198.50
2024-02-10T11:39:06.661Z,200.67
2024-02-10T11:41:22.350Z,192.50
2024-02-10T11:43:09.080Z,179.33
2024-02-10T11:44:44.840Z,167.50
2024-02-10T11:46:10.399Z,170.33
2024-02-10T11:47:51.561Z,163.17
2024-02-10T11:49:27.204Z,165.50
2024-02-10T11:51:38.649Z,184.83
2024-02-10T11:55:14.503Z,207.00
2024-02-10T11:56:42.387Z,203.83
2024-02-10T11:58:09.830Z,237.17
2024-02-10T11:59:40.733Z,260.50
2024-02-10T12:01:27.966Z,273.00
2024-02-10T12:03:15.517Z,273.17
2024-02-10T12:04:43.388Z,248.33
2024-02-10T12:06:14.772Z,239.00
2024-02-10T12:07:39.941Z,243.50
2024-02-10T12:09:06.909Z,311.83
2024-02-10T12:10:33.976Z,358.83
2024-02-10T12:12:17.507Z,413.83
2024-02-10T12:14:02.497Z,374.00
2024-02-10T12:16:06.026Z,374.17
2024-02-10T12:17:37.707Z,257.33
2024-02-10T12:19:11.363Z,219.83
2024-02-10T12:20:39.488Z,255.00
2024-02-10T12:22:13.180Z,267.00
2024-02-10T12:23:48.792Z,251.33
2024-02-10T12:25:14.790Z,242.00
2024-02-10T12:27:13.070Z,260.33
2024-02-10T12:28:50.390Z,262.00
2024-02-10T12:30:41.320Z,248.17
2024-02-10T12:32:06.476Z,201.33
2024-02-10T12:34:19.137Z,193.83
2024-02-10T12:35:41.938Z,178.33
2024-02-10T12:40:06.756Z,151.83
2024-02-10T12:41:31.237Z,130.00
2024-02-10T12:43:15.867Z,127.33
2024-02-10T12:45:00.492Z,121.00
2024-02-10T12:46:24.943Z,130.50
2024-02-10T12:47:54.506Z,123.33
2024-02-10T12:50:00.432Z,118.67
2024-02-10T12:51:29.859Z,125.33
2024-02-10T12:52:52.355Z,119.00
2024-02-10T12:54:23.880Z,127.33
2024-02-10T12:56:19.144Z,129.50
2024-02-10T12:57:47.090Z,131.67
2024-02-10T12:59:12.465Z,133.67
2024-02-10T13:00:34.881Z,141.33
2024-02-10T13:02:04.096Z,143.83
2024-02-10T13:03:40.272Z,144.67
2024-02-10T13:05:05.685Z,142.33
2024-02-10T13:06:34.307Z,136.83
2024-02-10T13:08:10.140Z,129.33
2024-02-10T13:09:36.326Z,127.17
2024-02-10T13:11:28.771Z,120.17
2024-02-10T13:13:00.830Z,113.17
2024-02-10T13:14:42.191Z,113.17
2024-02-10T13:16:34.938Z,109.00
2024-02-10T13:18:00.391Z,107.50
2024-02-10T13:21:48.030Z,104.50
2024-02-10T13:23:22.253Z,96.50
2024-02-10T13:25:22.444Z,97.17
2024-02-10T13:27:00.054Z,96.83
2024-02-10T13:29:09.857Z,97.67
2024-02-10T13:36:02.038Z,103.33
2024-02-10T13:37:47.762Z,105.00
2024-02-10T13:39:43.290Z,104.00
2024-02-10T13:42:02.476Z,102.17
2024-02-10T13:46:29.760Z,96.83
2024-02-10T13:48:17.932Z,97.50
2024-02-10T13:52:20.571Z,99.50
2024-02-10T13:54:00.766Z,100.00
2024-02-10T13:56:02.645Z,99.33
2024-02-10T13:58:43.383Z,103.17
2024-02-10T14:00:36.342Z,106.00
2024-02-10T14:02:17.504Z,103.50
2024-02-10T14:04:22.765Z,102.83
2024-02-10T14:06:22.154Z,113.17
2024-02-10T14:08:21.687Z,156.33
2024-02-10T14:10:43.267Z,157.83
2024-02-10T14:12:13.272Z,132.67
2024-02-10T14:14:01.985Z,118.33
2024-02-10T14:15:31.961Z,106.00
2024-02-10T14:21:10.628Z,107.00
2024-02-10T14:23:55.096Z,107.50
2024-02-10T14:25:38.426Z,103.83
2024-02-10T14:27:44.620Z,104.00
2024-02-10T14:29:34.102Z,105.00
2024-02-10T14:31:25.423Z,102.50
2024-02-10T14:33:00.676Z,103.33
2024-02-10T14:34:39.314Z,104.33
2024-02-10T14:36:19.393Z,107.33
2024-02-10T14:37:52.817Z,108.00
2024-02-10T14:39:43.087Z,102.33
2024-02-10T14:41:29.250Z,95.50
2024-02-10T14:43:31.671Z,95.83
2024-02-10T14:46:08.484Z,96.00
2024-02-10T14:47:31.293Z,143.00
2024-02-10T14:51:32.300Z,120.50
2024-02-10T14:53:14.750Z,114.33
2024-02-10T14:54:57.934Z,110.00
2024-02-10T14:56:41.036Z,107.67
2024-02-10T14:58:10.738Z,108.00
2024-02-10T14:59:33.834Z,175.83
2024-02-10T15:03:47.921Z,343.50
2024-02-10T15:05:23.984Z,308.83
2024-02-10T15:06:46.922Z,319.33
2024-02-10T15:08:13.043Z,270.50
2024-02-10T15:09:40.911Z,186.67
2024-02-10T15:11:44.020Z,169.33
2024-02-10T15:14:24.174Z,150.83
2024-02-10T15:15:53.701Z,144.83
2024-02-10T15:17:43.280Z,161.50
2024-02-10T15:19:04.546Z,284.83
2024-02-10T15:20:36.314Z,360.50
2024-02-10T15:22:23.200Z,352.83
2024-02-10T15:23:48.589Z,303.50
2024-02-10T15:25:18.361Z,355.83
2024-02-10T15:27:15.872Z,324.83
2024-02-10T15:28:47.859Z,189.50
2024-02-10T15:30:18.105Z,148.33
2024-02-10T15:31:41.667Z,139.83
2024-02-10T15:33:48.593Z,135.33
2024-02-10T15:35:38.549Z,136.33
2024-02-10T15:37:05.092Z,134.33
2024-02-10T15:39:19.997Z,134.67
2024-02-10T15:40:59.742Z,134.33
2024-02-10T15:42:29.406Z,124.50
2024-02-10T15:44:09.630Z,124.00
2024-02-10T15:45:49.920Z,129.00
2024-02-10T15:48:04.259Z,134.00
2024-02-10T15:49:32.374Z,127.50
2024-02-10T15:50:58.078Z,132.17
2024-02-10T15:52:21.200Z,153.50
2024-02-10T15:53:43.437Z,153.17
2024-02-10T15:55:15.724Z,150.83
2024-02-10T15:56:56.701Z,132.67
2024-02-10T15:58:24.251Z,132.00
2024-02-10T15:59:53.409Z,203.67
2024-02-10T16:01:42.021Z,225.33
2024-02-10T16:03:04.911Z,172.83
2024-02-10T16:04:52.383Z,137.33
2024-02-10T16:06:19.911Z,134.50
2024-02-10T16:07:45.612Z,135.50
2024-02-10T16:09:12.000Z,137.67
2024-02-10T16:10:56.543Z,138.50
2024-02-10T16:12:49.537Z,135.67
2024-02-10T16:14:29.349Z,144.33
2024-02-10T16:15:51.506Z,152.17
2024-02-10T16:17:16.836Z,155.83
2024-02-10T16:18:39.791Z,161.17
2024-02-10T16:20:02.025Z,159.33
2024-02-10T16:21:29.109Z,156.83
2024-02-10T16:22:55.963Z,145.17
2024-02-10T16:24:18.135Z,132.67
2024-02-10T16:25:42.267Z,131.67
2024-02-10T16:27:04.183Z,132.33
2024-02-10T16:28:26.589Z,137.33
2024-02-10T16:29:49.311Z,194.33
2024-02-10T16:31:12.756Z,205.67
2024-02-10T16:32:36.602Z,215.00
2024-02-10T16:34:00.151Z,206.67
2024-02-10T16:35:28.235Z,189.83
2024-02-10T16:36:50.681Z,188.00
2024-02-10T16:38:14.464Z,226.50
2024-02-10T16:39:36.294Z,358.00
2024-02-10T16:40:58.360Z,374.50
2024-02-10T16:42:20.404Z,273.50
2024-02-10T16:43:45.725Z,280.00
2024-02-10T16:45:08.085Z,288.33
2024-02-10T16:46:34.432Z,311.67
2024-02-10T16:47:58.134Z,357.67
2024-02-10T16:49:24.606Z,312.33
2024-02-10T16:50:46.923Z,376.83
2024-02-10T16:52:09.201Z,313.17
2024-02-10T16:53:30.386Z,286.83
2024-02-10T16:54:54.934Z,289.50
2024-02-10T16:56:17.715Z,313.33
2024-02-10T16:57:39.993Z,323.17
2024-02-10T16:59:01.297Z,292.83
2024-02-10T17:00:26.441Z,253.17
2024-02-10T17:01:48.387Z,272.00
2024-02-10T17:03:11.858Z,284.67
2024-02-10T17:04:34.886Z,280.83
2024-02-10T17:06:00.597Z,302.67
2024-02-10T17:07:31.613Z,359.50
2024-02-10T17:08:52.871Z,324.83
2024-02-10T17:10:16.357Z,383.50
2024-02-10T17:11:39.215Z,329.00
2024-02-10T17:13:01.412Z,322.00
2024-02-10T17:14:23.583Z,382.33
2024-02-10T17:15:46.256Z,345.17
2024-02-10T17:17:09.566Z,328.50
2024-02-10T17:18:32.920Z,355.17
2024-02-10T17:19:55.345Z,343.33
2024-02-10T17:21:17.685Z,290.83
2024-02-10T17:22:40.887Z,278.67
2024-02-10T17:24:02.633Z,333.33
2024-02-10T17:25:30.022Z,353.50
2024-02-10T17:26:54.612Z,339.33
2024-02-10T17:28:17.167Z,298.17
2024-02-10T17:29:39.329Z,308.17
2024-02-10T17:31:02.173Z,425.67
2024-02-10T17:32:23.526Z,354.33
2024-02-10T17:33:46.053Z,344.17
2024-02-10T17:35:09.579Z,340.50
2024-02-10T17:36:33.227Z,345.67
2024-02-10T17:38:03.598Z,350.83
2024-02-10T17:39:25.590Z,325.50
2024-02-10T17:40:47.990Z,323.67
2024-02-10T17:42:10.455Z,309.00
2024-02-10T17:43:33.081Z,348.67
2024-02-10T17:44:58.731Z,365.50
2024-02-10T17:46:21.298Z,318.00
2024-02-10T17:47:47.782Z,331.83
2024-02-10T17:49:12.236Z,379.00
2024-02-10T17:50:35.019Z,299.83
2024-02-10T17:51:58.954Z,324.00
2024-02-10T17:53:25.599Z,315.50
2024-02-10T17:54:50.382Z,358.17
2024-02-10T17:56:13.738Z,376.83
2024-02-10T17:57:36.587Z,326.83
2024-02-10T17:58:58.664Z,360.33
2024-02-10T18:00:22.592Z,282.67
2024-02-10T18:01:45.646Z,279.83
2024-02-10T18:03:08.111Z,316.67
2024-02-10T18:04:29.823Z,286.33
2024-02-10T18:05:54.873Z,326.33
2024-02-10T18:07:19.342Z,304.00
2024-02-10T18:08:42.727Z,219.17
2024-02-10T18:10:06.880Z,294.50
2024-02-10T18:11:29.534Z,297.50
2024-02-10T18:12:52.658Z,217.33
2024-02-10T18:14:15.317Z,219.00
2024-02-10T18:15:38.340Z,204.17
2024-02-10T18:17:01.797Z,213.33
2024-02-10T18:18:26.747Z,172.17
2024-02-10T18:19:49.136Z,143.00
2024-02-10T18:21:11.435Z,167.50
2024-02-10T18:22:34.076Z,252.17
2024-02-10T18:23:57.231Z,229.50
2024-02-10T18:25:19.846Z,201.17
2024-02-10T18:26:42.485Z,155.17
2024-02-10T18:28:12.037Z,150.00
2024-02-10T18:29:36.789Z,164.50
2024-02-10T18:31:03.522Z,148.83
2024-02-10T18:32:25.854Z,119.83
2024-02-10T18:33:47.670Z,110.17
2024-02-10T18:35:10.189Z,131.00
2024-02-10T18:36:33.282Z,119.00
2024-02-10T18:37:59.168Z,122.50
2024-02-10T18:39:23.743Z,134.17
2024-02-10T18:40:45.733Z,133.50
2024-02-10T18:42:07.888Z,128.67
2024-02-10T18:43:32.122Z,116.33
2024-02-10T18:44:54.788Z,176.17
2024-02-10T18:46:19.146Z,166.33
2024-02-10T18:47:42.206Z,161.00
2024-02-10T18:49:04.850Z,129.33
2024-02-10T18:50:27.061Z,111.50
2024-02-10T18:51:50.080Z,214.50
2024-02-10T18:53:14.864Z,223.67
2024-02-10T18:54:36.526Z,193.17
2024-02-10T18:56:09.038Z,218.67
2024-02-10T18:57:32.766Z,207.17
2024-02-10T18:58:58.302Z,222.33
2024-02-10T19:00:27.153Z,269.17
2024-02-10T19:01:55.987Z,182.50
2024-02-10T19:03:18.521Z,161.50
2024-02-10T19:04:41.424Z,172.17
2024-02-10T19:06:05.103Z,155.33
2024-02-10T19:07:28.810Z,165.83
2024-02-10T19:08:55.292Z,152.00
2024-02-10T19:10:20.230Z,120.50
2024-02-10T19:11:42.164Z,132.83
2024-02-10T19:13:06.048Z,132.67
2024-02-10T19:14:29.927Z,144.50
2024-02-10T19:15:53.998Z,122.17
2024-02-10T19:17:21.763Z,140.00
2024-02-10T19:18:45.667Z,132.00
2024-02-10T19:20:10.049Z,119.33
2024-02-10T19:21:37.293Z,120.83
2024-02-10T19:23:00.544Z,117.67
2024-02-10T19:24:25.418Z,108.17
2024-02-10T19:25:52.233Z,121.00
2024-02-10T19:27:15.269Z,106.67
2024-02-10T19:28:40.438Z,88.00
2024-02-10T19:30:11.378Z,94.00
2024-02-10T19:31:41.811Z,100.33
2024-02-10T19:33:04.311Z,134.00
2024-02-10T19:34:26.172Z,126.50
2024-02-10T19:35:52.681Z,143.83
2024-02-10T19:37:15.077Z,156.83
2024-02-10T19:38:38.566Z,136.33
2024-02-10T19:40:00.455Z,145.17
2024-02-10T19:41:25.052Z,139.33
2024-02-10T19:42:49.303Z,283.83
2024-02-10T19:44:15.222Z,242.67
2024-02-10T19:45:39.635Z,248.00
2024-02-10T19:47:02.434Z,245.67
2024-02-10T19:48:30.129Z,242.83
2024-02-10T19:49:57.209Z,233.67
2024-02-10T19:51:21.139Z,221.83
2024-02-10T19:52:48.184Z,317.33
2024-02-10T19:54:13.635Z,307.00
2024-02-10T19:55:36.052Z,197.50
2024-02-10T19:56:59.423Z,198.33
2024-02-10T19:58:25.126Z,312.00
2024-02-10T19:59:47.933Z,231.67
2024-02-10T20:01:11.197Z,195.00
2024-02-10T20:02:32.881Z,151.00
2024-02-10T20:03:55.885Z,135.00
2024-02-10T20:05:19.311Z,177.17
2024-02-10T20:06:43.265Z,184.00
2024-02-10T20:08:09.605Z,179.17
2024-02-10T20:09:32.362Z,151.00
2024-02-10T20:10:56.030Z,165.00
2024-02-10T20:12:33.941Z,150.50
2024-02-10T20:14:19.472Z,148.17
2024-02-10T20:15:51.188Z,122.67
2024-02-10T20:17:22.952Z,95.83
2024-02-10T20:18:54.062Z,93.00
2024-02-10T20:20:22.586Z,97.17
2024-02-10T20:21:46.356Z,92.67
2024-02-10T20:23:09.635Z,97.83
2024-02-10T20:24:40.916Z,84.00
2024-02-10T20:26:02.113Z,81.50
2024-02-10T20:27:57.821Z,79.50
2024-02-10T20:29:23.223Z,75.33
2024-02-10T20:30:45.446Z,69.00
2024-02-10T20:33:11.266Z,70.33
2024-02-10T20:38:02.075Z,79.50
2024-02-10T20:44:51.168Z,68.00
2024-02-10T20:46:44.662Z,72.50
2024-02-10T20:48:39.872Z,70.83
2024-02-10T20:50:05.310Z,86.67
2024-02-10T20:54:15.930Z,92.50
2024-02-10T20:56:12.821Z,92.00
2024-02-10T20:57:34.457Z,92.50
2024-02-10T20:59:33.213Z,92.50
2024-02-10T21:01:39.440Z,104.00
2024-02-10T21:03:12.928Z,92.17
2024-02-10T21:04:53.609Z,86.67
2024-02-10T21:06:39.485Z,84.17
2024-02-10T21:08:24.171Z,119.83
2024-02-10T21:13:00.396Z,102.50
2024-02-10T21:15:36.914Z,75.17
2024-02-10T21:20:10.477Z,100.83
2024-02-10T21:22:22.999Z,127.83
2024-02-10T21:24:25.097Z,115.00
2024-02-10T21:27:00.849Z,236.00
2024-02-10T21:29:39.223Z,222.00
2024-02-10T21:31:08.932Z,133.50
2024-02-10T21:33:34.880Z,101.50
2024-02-10T21:35:03.268Z,153.33
2024-02-10T21:36:27.011Z,102.67
2024-02-10T21:40:24.304Z,77.83
2024-02-10T21:42:30.724Z,94.17
2024-02-10T21:44:42.720Z,88.17
2024-02-10T21:46:04.344Z,117.00
2024-02-10T21:47:39.565Z,114.83
2024-02-10T21:49:27.784Z,123.33
2024-02-10T21:51:08.395Z,88.83
2024-02-10T21:52:32.323Z,88.83
2024-02-10T21:55:06.914Z,76.00
2024-02-10T21:56:05.154Z,76.17
2024-02-10T21:57:40.771Z,82.00
2024-02-10T21:59:08.107Z,87.83
2024-02-10T22:00:54.329Z,71.83
2024-02-10T22:02:19.310Z,68.00